createdAt,value
2023-02-20T00:01:20.770Z,2.90
2023-02-20T00:06:24.376Z,3.13
2023-02-20T00:11:28.002Z,2.90
2023-02-20T00:16:33.290Z,2.97
2023-02-20T00:21:36.955Z,3.10
2023-02-20T00:26:40.754Z,3.10
2023-02-20T00:31:52.003Z,3.05
2023-02-20T00:36:56.479Z,2.85
2023-02-20T00:42:00.115Z,2.83
2023-02-20T00:47:05.489Z,3.22
2023-02-20T00:52:09.148Z,2.70
2023-02-20T00:57:12.817Z,2.70
2023-02-20T01:02:18.189Z,3.30
2023-02-20T01:07:21.808Z,2.67
2023-02-20T01:12:25.463Z,2.90
2023-02-20T01:17:30.731Z,2.88
2023-02-20T01:22:34.337Z,2.70
2023-02-20T01:27:38.042Z,2.90
2023-02-20T01:32:43.583Z,2.92
2023-02-20T01:37:47.181Z,2.55
2023-02-20T01:42:50.893Z,3.10
2023-02-20T01:47:57.077Z,3.90
2023-02-20T01:53:05.523Z,3.70
2023-02-20T01:58:16.098Z,3.45
2023-02-20T02:03:25.936Z,3.85
2023-02-20T02:08:30.465Z,4.40
2023-02-20T02:13:35.746Z,4.50
2023-02-20T02:18:52.437Z,3.70
2023-02-20T02:24:38.767Z,3.40
2023-02-20T02:29:58.632Z,3.42
2023-02-20T02:35:34.038Z,3.50
2023-02-20T02:40:45.662Z,3.85
2023-02-20T02:45:55.036Z,2.70
2023-02-20T02:51:03.420Z,3.53
2023-02-20T02:56:09.899Z,3.30
2023-02-20T03:01:14.258Z,3.30
2023-02-20T03:06:22.278Z,3.50
2023-02-20T03:11:30.057Z,3.60
2023-02-20T03:16:41.709Z,3.30
2023-02-20T03:21:49.232Z,3.88
2023-02-20T03:26:56.888Z,3.78
2023-02-20T03:32:06.913Z,3.60
2023-02-20T03:37:15.907Z,3.40
2023-02-20T03:42:23.250Z,3.38
2023-02-20T03:47:30.241Z,3.10
2023-02-20T03:52:33.891Z,3.05
2023-02-20T03:57:43.178Z,2.83
2023-02-20T04:02:51.360Z,3.05
2023-02-20T04:07:59.690Z,2.63
2023-02-20T04:13:06.101Z,3.10
2023-02-20T04:18:12.247Z,4.10
2023-02-20T04:23:18.157Z,3.30
2023-02-20T04:28:24.258Z,3.40
2023-02-20T04:38:30.999Z,3.60
2023-02-20T04:43:36.260Z,3.55
2023-02-20T04:48:39.903Z,3.37
2023-02-20T04:53:43.496Z,3.38
2023-02-20T04:58:50.058Z,3.72
2023-02-20T05:03:53.697Z,3.70
2023-02-20T05:08:57.367Z,2.95
2023-02-20T05:14:02.655Z,3.25
2023-02-20T05:19:06.551Z,2.97
2023-02-20T05:24:10.249Z,2.85
2023-02-20T05:29:15.537Z,2.70
2023-02-20T05:34:19.148Z,2.50
2023-02-20T05:39:22.947Z,2.53
2023-02-20T05:44:28.271Z,2.85
2023-02-20T05:49:32.091Z,2.73
2023-02-20T05:54:38.054Z,2.50
2023-02-20T05:59:43.372Z,2.60
2023-02-20T06:04:47.032Z,2.87
2023-02-20T06:09:50.699Z,2.50
2023-02-20T06:14:56.101Z,2.72
2023-02-20T06:20:00.425Z,2.80
2023-02-20T06:25:04.311Z,2.95
2023-02-20T06:30:10.783Z,2.97
2023-02-20T06:35:14.426Z,2.78
2023-02-20T06:40:18.144Z,2.40
2023-02-20T06:45:23.450Z,2.60
2023-02-20T06:50:27.142Z,2.50
2023-02-20T06:55:30.775Z,2.63
2023-02-20T07:00:36.172Z,2.17
2023-02-20T07:05:39.812Z,2.80
2023-02-20T07:10:43.411Z,2.50
2023-02-20T07:15:48.753Z,2.70
2023-02-20T07:20:54.733Z,2.20
2023-02-20T07:25:58.787Z,2.50
2023-02-20T07:31:04.240Z,2.20
2023-02-20T07:36:08.948Z,2.37
2023-02-20T07:41:17.903Z,2.50
2023-02-20T07:46:23.594Z,2.45
2023-02-20T07:51:27.413Z,2.40
2023-02-20T07:56:31.727Z,2.25
2023-02-20T08:01:37.174Z,2.33
2023-02-20T08:06:40.868Z,2.57
2023-02-20T08:11:44.496Z,2.60
2023-02-20T08:16:49.763Z,2.35
2023-02-20T08:21:53.476Z,2.30
2023-02-20T08:26:58.441Z,2.25
2023-02-20T08:32:04.671Z,2.40
2023-02-20T08:37:08.312Z,2.23
2023-02-20T08:42:15.276Z,2.40
2023-02-20T08:47:22.458Z,2.33
2023-02-20T08:52:26.264Z,2.30
2023-02-20T08:57:29.938Z,2.22
2023-02-20T09:02:35.274Z,2.22
2023-02-20T09:07:38.926Z,2.20
2023-02-20T09:12:42.598Z,2.53
2023-02-20T09:17:50.084Z,2.50
2023-02-20T09:22:59.507Z,2.30
2023-02-20T09:28:03.525Z,2.67
2023-02-20T09:33:08.876Z,2.20
2023-02-20T09:38:12.508Z,2.00
2023-02-20T09:43:29.066Z,2.30
2023-02-20T09:53:53.107Z,2.40
2023-02-20T09:59:01.963Z,2.20
2023-02-20T10:04:12.299Z,2.65
2023-02-20T10:09:16.768Z,2.45
2023-02-20T10:14:48.665Z,2.45
2023-02-20T10:19:59.677Z,2.50
2023-02-20T10:25:17.424Z,3.03
2023-02-20T10:30:26.988Z,2.45
2023-02-20T10:35:39.050Z,2.55
2023-02-20T10:40:46.539Z,2.58
2023-02-20T10:45:59.229Z,2.60
2023-02-20T10:51:09.920Z,3.00
2023-02-20T10:56:17.120Z,2.70
2023-02-20T11:01:23.545Z,3.10
2023-02-20T11:06:34.159Z,2.45
2023-02-20T11:11:39.783Z,2.55
2023-02-20T11:16:50.337Z,2.67
2023-02-20T11:21:56.642Z,2.85
2023-02-20T11:27:03.795Z,2.78
2023-02-20T11:32:33.741Z,3.30
2023-02-20T11:37:52.703Z,2.95
2023-02-20T11:43:10.230Z,2.75
2023-02-20T11:48:14.961Z,2.80
2023-02-20T11:53:24.167Z,2.70
2023-02-20T11:58:28.857Z,2.70
2023-02-20T12:03:33.765Z,3.03
2023-02-20T12:08:53.962Z,2.63
2023-02-20T12:13:59.258Z,2.80
2023-02-20T12:19:11.393Z,2.83
2023-02-20T12:24:33.915Z,2.50
2023-02-20T12:29:47.165Z,2.28
2023-02-20T12:35:02.528Z,2.50
2023-02-20T12:40:27.127Z,2.50
2023-02-20T12:45:39.265Z,2.60
2023-02-20T12:50:52.277Z,2.70
2023-02-20T12:56:18.250Z,2.60
2023-02-20T13:01:38.381Z,2.70
2023-02-20T13:06:48.653Z,2.83
2023-02-20T13:11:59.199Z,2.55
2023-02-20T13:17:12.531Z,2.92
2023-02-20T13:22:17.029Z,2.67
2023-02-20T13:27:33.050Z,2.83
2023-02-20T13:32:36.821Z,2.63
2023-02-20T13:37:54.944Z,2.70
2023-02-20T13:43:30.676Z,3.15
2023-02-20T13:48:43.387Z,3.45
2023-02-20T13:53:49.750Z,2.80
2023-02-20T13:58:58.444Z,2.50
2023-02-20T14:04:02.922Z,3.15
2023-02-20T14:09:10.579Z,2.90
2023-02-20T14:14:34.507Z,2.83
2023-02-20T14:19:43.009Z,2.70
2023-02-20T14:24:46.656Z,2.83
2023-02-20T14:30:05.608Z,3.03
2023-02-20T14:35:33.208Z,2.92
2023-02-20T14:40:40.516Z,2.80
2023-02-20T14:45:46.890Z,3.10
2023-02-20T14:51:03.636Z,2.90
2023-02-20T15:01:36.071Z,2.90
2023-02-20T15:06:42.804Z,2.78
2023-02-20T15:11:52.257Z,3.25
2023-02-20T15:17:20.211Z,3.00
2023-02-20T15:22:27.171Z,2.75
2023-02-20T15:27:30.806Z,2.83
2023-02-20T15:32:36.502Z,2.60
2023-02-20T15:37:49.100Z,2.83
2023-02-20T15:42:54.318Z,2.90
2023-02-20T15:47:59.938Z,3.08
2023-02-20T15:53:04.489Z,2.90
2023-02-20T15:58:22.363Z,2.90
2023-02-20T16:03:33.862Z,2.80
2023-02-20T16:08:42.487Z,2.58
2023-02-20T16:13:49.930Z,2.70
2023-02-20T16:18:55.489Z,2.75
2023-02-20T16:23:59.156Z,2.90
2023-02-20T16:29:05.166Z,2.83
2023-02-20T16:34:21.354Z,2.30
2023-02-20T16:39:27.184Z,2.53
2023-02-20T16:44:36.778Z,2.60
2023-02-20T16:49:42.060Z,2.67
2023-02-20T16:54:46.929Z,2.40
2023-02-20T16:59:51.271Z,2.80
2023-02-20T17:04:56.978Z,2.90
2023-02-20T17:10:00.669Z,2.70
2023-02-20T17:15:06.193Z,2.90
2023-02-20T17:20:15.192Z,2.80
2023-02-20T17:25:21.652Z,2.75
2023-02-20T17:30:26.171Z,3.10
2023-02-20T17:35:31.462Z,2.65
2023-02-20T17:40:35.113Z,2.97
2023-02-20T17:45:38.739Z,3.03
2023-02-20T17:50:44.032Z,3.08
2023-02-20T17:55:47.670Z,2.87
2023-02-20T18:00:51.415Z,2.67
2023-02-20T18:05:56.749Z,3.22
2023-02-20T18:11:00.509Z,3.20
2023-02-20T18:16:04.236Z,3.10
2023-02-20T18:21:17.869Z,3.13
2023-02-20T18:26:22.148Z,3.20
2023-02-20T18:31:25.850Z,2.90
2023-02-20T18:36:31.236Z,2.72
2023-02-20T18:41:35.510Z,3.30
2023-02-20T18:46:39.383Z,3.25
2023-02-20T18:51:46.002Z,3.08
2023-02-20T18:56:50.711Z,3.53
2023-02-20T19:01:54.848Z,3.60
2023-02-20T19:07:00.602Z,3.00
2023-02-20T19:12:05.535Z,3.22
2023-02-20T19:17:11.526Z,3.80
2023-02-20T19:22:16.836Z,4.00
2023-02-20T19:27:21.541Z,4.15
2023-02-20T19:32:25.376Z,3.90
2023-02-20T19:37:30.853Z,4.18
2023-02-20T19:42:35.322Z,4.07
2023-02-20T19:47:38.965Z,4.38
2023-02-20T19:52:44.410Z,4.30
2023-02-20T19:57:48.019Z,4.20
2023-02-20T20:02:52.207Z,3.88
2023-02-20T20:07:57.712Z,4.15
2023-02-20T20:18:04.644Z,3.97
2023-02-20T20:23:10.388Z,4.00
2023-02-20T20:28:14.208Z,3.70
2023-02-20T20:33:18.843Z,3.67
2023-02-20T20:38:24.397Z,3.23
2023-02-20T20:48:31.865Z,3.60
2023-02-20T20:53:37.142Z,3.40
2023-02-20T20:58:40.889Z,4.10
2023-02-20T21:03:44.510Z,3.90
2023-02-20T21:08:49.796Z,3.92
2023-02-20T21:13:53.424Z,4.03
2023-02-20T21:18:57.066Z,3.65
2023-02-20T21:24:02.358Z,4.22
2023-02-20T21:29:06.132Z,3.70
2023-02-20T21:34:10.030Z,3.95
2023-02-20T21:39:15.446Z,3.95
2023-02-20T21:49:22.982Z,4.05
2023-02-20T21:54:30.042Z,4.50
2023-02-20T21:59:34.403Z,4.30
2023-02-20T22:04:40.216Z,3.70
2023-02-20T22:09:45.568Z,3.60
2023-02-20T22:19:52.589Z,3.25
2023-02-20T22:24:57.917Z,2.60
2023-02-20T22:30:01.575Z,3.25
2023-02-20T22:35:12.160Z,3.25
2023-02-20T22:40:18.076Z,3.13
2023-02-20T22:45:21.771Z,3.08
2023-02-20T22:50:25.439Z,2.95
2023-02-20T22:55:30.821Z,3.20
2023-02-20T23:00:34.517Z,3.40
2023-02-20T23:05:38.209Z,3.15
2023-02-20T23:10:43.487Z,3.30
2023-02-20T23:15:47.304Z,3.55
2023-02-20T23:20:50.985Z,3.35
2023-02-20T23:25:56.303Z,3.30
2023-02-20T23:30:59.935Z,3.20
2023-02-20T23:36:03.545Z,3.60
2023-02-20T23:41:10.629Z,3.60
2023-02-20T23:46:14.348Z,3.60
2023-02-20T23:51:18.038Z,3.50
2023-02-20T23:56:23.708Z,3.78
